Time;durP1;ratioP1;P1;durP2;ratioP2;P2;SDS_P1;SDS_P2;PMS_P1;PMS_P2;Temp;Humidity;BMP_temperature;BMP_pressure;BME280_temperature;BME280_humidity;BME280_pressure;Samples;Min_cycle;Max_cycle;Signal;HPM_P1;HPM_P2
2022/02/18 00:02:22;;;;;;;;;;;19.70;50.70;;;;;;5024355;28;19979;-58
2022/02/18 00:04:47;;;;;;;;;;;19.70;50.70;;;;;;5019510;28;19920;-60
2022/02/18 00:07:13;;;;;;;;;;;19.70;50.70;;;;;;5016428;28;19999;-60
2022/02/18 00:09:38;;;;;;;;;;;19.80;50.70;;;;;;5014005;28;19913;-56
2022/02/18 00:12:04;;;;;;;;;;;19.70;50.70;;;;;;5024269;28;20367;-60
2022/02/18 00:14:30;;;;;;;;;;;19.70;50.60;;;;;;5020603;28;19991;-53
2022/02/18 00:16:55;;;;;;;;;;;19.70;50.70;;;;;;5013313;28;20398;-58
2022/02/18 00:19:21;;;;;;;;;;;19.70;50.70;;;;;;5009324;28;19955;-56
2022/02/18 00:21:48;;;;;;;;;;;19.70;50.70;;;;;;5018806;28;20371;-58
2022/02/18 00:24:13;;;;;;;;;;;19.70;50.70;;;;;;5011222;28;19917;-62
2022/02/18 00:26:39;;;;;;;;;;;19.70;50.60;;;;;;5003356;28;19923;-57
2022/02/18 00:29:04;;;;;;;;;;;19.70;50.70;;;;;;5011017;28;19913;-57
2022/02/18 00:31:30;;;;;;;;;;;19.70;50.70;;;;;;5018848;28;19913;-60
2022/02/18 00:33:55;;;;;;;;;;;19.70;50.60;;;;;;5019359;28;19968;-55
2022/02/18 00:36:21;;;;;;;;;;;19.70;50.60;;;;;;5018018;28;19967;-58
2022/02/18 00:38:46;;;;;;;;;;;19.70;50.60;;;;;;5010960;28;19945;-58
2022/02/18 00:41:13;;;;;;;;;;;19.70;50.60;;;;;;5019992;28;19926;-58
2022/02/18 00:43:39;;;;;;;;;;;19.70;50.50;;;;;;5013236;28;19964;-58
2022/02/18 00:46:04;;;;;;;;;;;19.70;50.60;;;;;;4996439;28;19921;-60
2022/02/18 00:48:30;;;;;;;;;;;19.60;50.50;;;;;;5010268;28;19917;-56
2022/02/18 00:50:55;;;;;;;;;;;19.70;50.50;;;;;;5021268;28;20290;-59
2022/02/18 00:53:20;;;;;;;;;;;19.70;50.40;;;;;;5004353;28;19920;-59
2022/02/18 00:55:46;;;;;;;;;;;19.70;50.40;;;;;;5013818;28;19917;-56
2022/02/18 00:58:11;;;;;;;;;;;19.60;50.30;;;;;;5018624;28;19921;-60
2022/02/18 01:00:37;;;;;;;;;;;19.70;50.30;;;;;;4996541;28;20380;-57
2022/02/18 01:03:02;;;;;;;;;;;19.70;50.30;;;;;;5017888;28;19917;-56
2022/02/18 01:05:28;;;;;;;;;;;19.70;50.30;;;;;;5017707;28;19913;-59
2022/02/18 01:07:53;;;;;;;;;;;19.60;50.30;;;;;;5012310;28;19920;-57
2022/02/18 01:10:19;;;;;;;;;;;19.60;50.30;;;;;;5013897;28;19949;-61
2022/02/18 01:12:44;;;;;;;;;;;19.60;50.30;;;;;;5021894;28;19917;-61
2022/02/18 01:15:10;;;;;;;;;;;19.60;50.30;;;;;;5017133;28;19925;-58
2022/02/18 01:17:35;;;;;;;;;;;19.60;50.40;;;;;;5015604;28;20000;-60
2022/02/18 01:20:01;;;;;;;;;;;19.60;50.30;;;;;;5019648;28;20290;-57
2022/02/18 01:22:27;;;;;;;;;;;19.60;50.30;;;;;;5013589;28;19917;-57
2022/02/18 01:24:52;;;;;;;;;;;19.60;50.30;;;;;;4991146;28;19917;-61
2022/02/18 01:27:17;;;;;;;;;;;19.60;50.30;;;;;;5014555;28;19913;-59
2022/02/18 01:29:43;;;;;;;;;;;19.60;50.30;;;;;;5020397;28;19917;-60
2022/02/18 01:32:09;;;;;;;;;;;19.60;50.30;;;;;;5017295;28;19968;-59
2022/02/18 01:34:34;;;;;;;;;;;19.60;50.20;;;;;;5012866;28;19921;-56
2022/02/18 01:37:00;;;;;;;;;;;19.60;50.30;;;;;;5020151;28;19913;-57
2022/02/18 01:39:25;;;;;;;;;;;19.60;50.30;;;;;;5020412;28;20503;-63
2022/02/18 01:41:51;;;;;;;;;;;19.60;50.20;;;;;;5021250;28;19914;-56
2022/02/18 01:44:32;;;;;;;;;;;19.60;50.20;;;;;;5019203;28;20371;-54
2022/02/18 01:46:58;;;;;;;;;;;19.60;50.20;;;;;;5013485;28;19921;-60
2022/02/18 01:49:23;;;;;;;;;;;19.60;50.20;;;;;;4989881;28;19917;-59
2022/02/18 01:51:48;;;;;;;;;;;19.60;50.20;;;;;;5024439;28;19920;-55
2022/02/18 01:54:14;;;;;;;;;;;19.50;50.10;;;;;;5001034;28;19971;-62
2022/02/18 01:56:39;;;;;;;;;;;19.60;50.00;;;;;;5012979;28;19917;-56
2022/02/18 01:59:05;;;;;;;;;;;19.60;50.00;;;;;;4999041;28;19913;-55
2022/02/18 02:01:30;;;;;;;;;;;19.60;50.00;;;;;;5021264;28;19913;-60
2022/02/18 02:03:56;;;;;;;;;;;19.60;50.00;;;;;;5008149;28;19941;-58
2022/02/18 02:06:21;;;;;;;;;;;19.60;50.00;;;;;;5014202;28;19913;-60
2022/02/18 02:08:46;;;;;;;;;;;19.60;49.90;;;;;;4981720;28;19917;-59
2022/02/18 02:11:12;;;;;;;;;;;19.60;50.00;;;;;;5007131;28;19921;-60
2022/02/18 02:13:38;;;;;;;;;;;19.50;49.80;;;;;;5011843;28;19990;-56
2022/02/18 02:16:04;;;;;;;;;;;19.50;49.90;;;;;;5017071;28;20304;-55
2022/02/18 02:18:29;;;;;;;;;;;19.50;49.80;;;;;;5018549;28;19914;-60
2022/02/18 02:20:55;;;;;;;;;;;19.50;49.80;;;;;;5004234;28;19913;-58
2022/02/18 02:23:20;;;;;;;;;;;19.50;49.90;;;;;;5019264;28;19913;-57
2022/02/18 02:25:46;;;;;;;;;;;19.50;49.70;;;;;;5015280;28;20032;-56
2022/02/18 02:28:11;;;;;;;;;;;19.50;49.70;;;;;;5021125;28;20063;-54
2022/02/18 02:30:37;;;;;;;;;;;19.50;49.80;;;;;;5019948;28;19917;-58
2022/02/18 02:33:02;;;;;;;;;;;19.40;49.80;;;;;;4989213;28;20484;-57
2022/02/18 02:35:28;;;;;;;;;;;19.50;49.90;;;;;;5016055;28;19926;-58
2022/02/18 02:37:54;;;;;;;;;;;19.50;49.80;;;;;;5015219;28;19918;-60
2022/02/18 02:40:19;;;;;;;;;;;19.50;49.90;;;;;;5020890;28;19921;-64
2022/02/18 02:42:45;;;;;;;;;;;19.50;50.00;;;;;;5016475;28;20310;-57
2022/02/18 02:45:11;;;;;;;;;;;19.50;50.00;;;;;;5016746;28;20319;-58
2022/02/18 02:47:39;;;;;;;;;;;19.50;50.20;;;;;;5017723;28;19964;-59
2022/02/18 02:50:05;;;;;;;;;;;19.50;50.00;;;;;;5005032;28;20305;-58
2022/02/18 02:52:30;;;;;;;;;;;19.60;50.10;;;;;;5024549;28;19921;-58
2022/02/18 02:54:56;;;;;;;;;;;19.70;50.10;;;;;;5015227;28;19921;-61
2022/02/18 02:57:21;;;;;;;;;;;19.70;50.00;;;;;;5001243;28;20433;-60
2022/02/18 02:59:47;;;;;;;;;;;19.70;50.00;;;;;;5014453;28;19920;-54
2022/02/18 03:02:12;;;;;;;;;;;19.70;50.00;;;;;;5015638;28;20409;-58
2022/02/18 03:04:38;;;;;;;;;;;19.80;50.10;;;;;;5022389;28;19914;-62
2022/02/18 03:07:03;;;;;;;;;;;19.80;50.00;;;;;;5016463;28;19936;-54
2022/02/18 03:09:29;;;;;;;;;;;19.80;50.00;;;;;;5008479;28;20052;-56
2022/02/18 03:11:54;;;;;;;;;;;19.80;50.00;;;;;;5014204;28;19917;-61
2022/02/18 03:14:20;;;;;;;;;;;19.80;50.00;;;;;;5011494;28;20371;-56
2022/02/18 03:16:45;;;;;;;;;;;19.90;50.10;;;;;;5015887;28;19999;-58
2022/02/18 03:19:11;;;;;;;;;;;19.90;50.00;;;;;;5015380;28;19924;-59
2022/02/18 03:21:36;;;;;;;;;;;19.80;50.00;;;;;;5019861;28;20435;-58
2022/02/18 03:24:01;;;;;;;;;;;19.90;50.10;;;;;;5022217;28;19913;-56
2022/02/18 03:26:27;;;;;;;;;;;19.90;50.00;;;;;;5011906;28;19917;-59
2022/02/18 03:28:52;;;;;;;;;;;19.90;50.00;;;;;;5023847;28;19979;-56
2022/02/18 03:31:18;;;;;;;;;;;19.90;50.00;;;;;;5015984;28;20371;-57
2022/02/18 03:33:43;;;;;;;;;;;19.90;50.00;;;;;;5010859;28;19921;-56
2022/02/18 03:36:09;;;;;;;;;;;19.90;50.10;;;;;;4994818;28;19917;-63
2022/02/18 03:38:35;;;;;;;;;;;19.90;50.00;;;;;;5022542;28;19968;-56
2022/02/18 03:41:00;;;;;;;;;;;19.90;50.70;;;;;;5024561;28;19925;-54
2022/02/18 03:43:26;;;;;;;;;;;19.80;50.10;;;;;;5024048;28;19936;-55
2022/02/18 03:45:51;;;;;;;;;;;19.90;50.10;;;;;;5024618;28;19913;-61
2022/02/18 03:48:16;;;;;;;;;;;19.80;50.10;;;;;;5023548;28;19913;-56
2022/02/18 03:50:42;;;;;;;;;;;19.80;49.90;;;;;;5023263;28;19913;-57
2022/02/18 03:53:07;;;;;;;;;;;19.80;50.00;;;;;;5024221;28;20355;-60
2022/02/18 03:55:33;;;;;;;;;;;19.80;49.80;;;;;;5023974;28;19925;-55
2022/02/18 03:57:58;;;;;;;;;;;19.80;50.00;;;;;;5024021;28;19914;-57
2022/02/18 04:00:24;;;;;;;;;;;19.80;49.90;;;;;;5023441;28;19919;-58
2022/02/18 04:02:49;;;;;;;;;;;19.80;49.80;;;;;;5024192;28;20329;-56
2022/02/18 04:05:15;;;;;;;;;;;19.80;50.00;;;;;;5022009;28;19924;-58
2022/02/18 04:07:40;;;;;;;;;;;19.80;49.80;;;;;;5023299;28;19914;-59
2022/02/18 04:10:06;;;;;;;;;;;19.80;49.80;;;;;;5023248;28;19963;-57
2022/02/18 04:12:31;;;;;;;;;;;19.80;49.70;;;;;;5034322;22;19918;-58
2022/02/18 04:14:57;;;;;;;;;;;19.70;49.60;;;;;;5057264;28;19920;-58
2022/02/18 04:17:24;;;;;;;;;;;19.80;49.80;;;;;;5077291;28;20364;-61
2022/02/18 04:19:49;;;;;;;;;;;19.80;49.60;;;;;;5069172;28;19955;-60
2022/02/18 04:22:14;;;;;;;;;;;19.80;49.60;;;;;;5054829;28;19943;-58
2022/02/18 04:24:40;;;;;;;;;;;19.70;49.60;;;;;;5045355;28;19982;-59
2022/02/18 04:27:05;;;;;;;;;;;19.70;49.60;;;;;;5066655;28;19917;-59
2022/02/18 04:29:31;;;;;;;;;;;19.80;49.70;;;;;;5070092;28;19912;-61
2022/02/18 04:31:56;;;;;;;;;;;19.70;49.60;;;;;;5073343;28;19912;-59
2022/02/18 04:34:22;;;;;;;;;;;19.70;49.70;;;;;;5062654;28;19913;-59
2022/02/18 04:36:47;;;;;;;;;;;19.70;49.70;;;;;;5074373;28;19927;-59
2022/02/18 04:39:13;;;;;;;;;;;19.80;49.80;;;;;;5074948;28;20301;-60
2022/02/18 04:41:38;;;;;;;;;;;19.70;49.60;;;;;;5079732;28;19919;-60
2022/02/18 04:44:04;;;;;;;;;;;19.70;49.60;;;;;;5077148;28;19913;-57
2022/02/18 04:46:30;;;;;;;;;;;19.70;49.70;;;;;;5076660;28;19917;-60
2022/02/18 04:48:55;;;;;;;;;;;19.70;49.70;;;;;;5079529;28;19981;-61
2022/02/18 04:51:21;;;;;;;;;;;19.70;49.80;;;;;;5066047;28;19923;-59
2022/02/18 04:53:46;;;;;;;;;;;19.70;49.60;;;;;;5084918;28;19920;-59
2022/02/18 04:56:11;;;;;;;;;;;19.80;50.00;;;;;;5076131;28;19989;-59
2022/02/18 04:58:37;;;;;;;;;;;19.80;49.70;;;;;;5082940;28;19916;-58
2022/02/18 05:01:06;;;;;;;;;;;19.80;49.80;;;;;;5071121;28;19917;-58
2022/02/18 05:03:31;;;;;;;;;;;19.80;49.70;;;;;;5075477;28;19916;-61
2022/02/18 05:05:57;;;;;;;;;;;19.70;49.50;;;;;;5080822;28;19922;-59
2022/02/18 05:08:22;;;;;;;;;;;19.70;49.60;;;;;;5081433;28;19912;-60
2022/02/18 05:10:47;;;;;;;;;;;19.80;49.70;;;;;;5075200;28;19916;-61
2022/02/18 05:13:13;;;;;;;;;;;19.80;49.60;;;;;;5073587;28;20043;-59
2022/02/18 05:15:38;;;;;;;;;;;19.80;49.80;;;;;;5077439;28;19924;-59
2022/02/18 05:18:04;;;;;;;;;;;19.80;49.60;;;;;;5073196;28;20118;-61
2022/02/18 05:20:30;;;;;;;;;;;19.80;49.60;;;;;;5055601;28;19919;-59
2022/02/18 05:22:55;;;;;;;;;;;19.80;49.60;;;;;;5074620;28;19916;-59
2022/02/18 05:25:21;;;;;;;;;;;19.80;49.60;;;;;;5073170;28;19940;-59
2022/02/18 05:27:47;;;;;;;;;;;19.80;49.70;;;;;;5066730;28;19920;-59
2022/02/18 05:30:12;;;;;;;;;;;19.80;49.60;;;;;;5070011;28;19999;-60
2022/02/18 05:32:38;;;;;;;;;;;19.70;49.50;;;;;;5079044;28;19995;-61
2022/02/18 05:35:03;;;;;;;;;;;19.80;49.60;;;;;;5084044;28;19925;-59
2022/02/18 05:37:29;;;;;;;;;;;19.80;49.40;;;;;;5076453;28;19916;-59
2022/02/18 05:39:54;;;;;;;;;;;19.80;49.40;;;;;;5072782;28;19961;-58
2022/02/18 05:42:20;;;;;;;;;;;19.80;49.60;;;;;;5067287;28;19916;-58
2022/02/18 05:44:45;;;;;;;;;;;19.80;50.30;;;;;;5073166;28;19912;-59
2022/02/18 05:47:10;;;;;;;;;;;19.80;49.60;;;;;;5067941;28;19912;-60
2022/02/18 05:49:36;;;;;;;;;;;19.80;50.00;;;;;;5081042;28;19913;-57
2022/02/18 05:52:01;;;;;;;;;;;19.80;49.40;;;;;;5077784;28;20418;-56
2022/02/18 05:54:27;;;;;;;;;;;19.80;49.50;;;;;;5081339;28;19919;-58
2022/02/18 05:56:52;;;;;;;;;;;19.80;49.40;;;;;;5072907;28;20291;-56
2022/02/18 05:59:18;;;;;;;;;;;19.80;49.30;;;;;;5080575;28;19919;-58
2022/02/18 06:01:44;;;;;;;;;;;19.80;49.40;;;;;;5069941;28;19913;-60
2022/02/18 06:04:11;;;;;;;;;;;19.70;49.90;;;;;;5081472;28;19955;-59
2022/02/18 06:06:36;;;;;;;;;;;19.70;49.30;;;;;;5072765;28;19912;-59
2022/02/18 06:09:02;;;;;;;;;;;19.80;49.30;;;;;;5062622;28;19912;-60
2022/02/18 06:11:27;;;;;;;;;;;19.70;49.50;;;;;;5079820;28;19912;-59
2022/02/18 06:13:52;;;;;;;;;;;19.80;49.60;;;;;;5068144;28;19927;-56
2022/02/18 06:16:18;;;;;;;;;;;19.70;49.30;;;;;;5070728;28;20383;-59
2022/02/18 06:18:43;;;;;;;;;;;19.70;49.30;;;;;;5075354;28;19919;-61
2022/02/18 06:21:09;;;;;;;;;;;19.70;49.40;;;;;;5073811;28;20426;-58
2022/02/18 06:23:34;;;;;;;;;;;19.70;49.60;;;;;;5078539;28;19917;-59
2022/02/18 06:26:00;;;;;;;;;;;19.70;49.40;;;;;;5072138;28;20332;-59
2022/02/18 06:28:25;;;;;;;;;;;19.70;49.40;;;;;;5065034;28;19923;-62
2022/02/18 06:30:51;;;;;;;;;;;19.80;49.50;;;;;;5061586;28;19913;-58
2022/02/18 06:33:16;;;;;;;;;;;19.80;49.50;;;;;;5061609;28;20362;-60
2022/02/18 06:35:43;;;;;;;;;;;19.80;49.30;;;;;;5064180;28;19930;-59
2022/02/18 06:38:08;;;;;;;;;;;19.80;49.30;;;;;;5081058;28;19916;-60
2022/02/18 06:40:34;;;;;;;;;;;19.80;49.30;;;;;;5080459;28;19931;-60
2022/02/18 06:42:59;;;;;;;;;;;19.80;49.30;;;;;;5064087;28;20019;-59
2022/02/18 06:45:25;;;;;;;;;;;19.80;49.20;;;;;;5068547;28;20003;-56
2022/02/18 06:47:50;;;;;;;;;;;19.80;49.20;;;;;;5070212;28;19912;-58
2022/02/18 06:50:16;;;;;;;;;;;19.70;49.20;;;;;;5068933;28;19913;-56
2022/02/18 06:52:45;;;;;;;;;;;19.80;49.50;;;;;;5058310;28;19912;-60
2022/02/18 06:55:11;;;;;;;;;;;19.80;49.60;;;;;;5069002;28;20297;-59
2022/02/18 06:57:37;;;;;;;;;;;19.80;49.40;;;;;;5065611;28;19912;-58
2022/02/18 07:00:03;;;;;;;;;;;19.80;49.20;;;;;;5054575;28;19912;-57
2022/02/18 07:02:28;;;;;;;;;;;19.80;49.20;;;;;;5075402;28;19919;-58
2022/02/18 07:04:53;;;;;;;;;;;19.70;49.00;;;;;;5080200;28;19912;-58
2022/02/18 07:07:19;;;;;;;;;;;19.70;49.00;;;;;;5080543;28;20415;-60
2022/02/18 07:09:45;;;;;;;;;;;19.70;49.00;;;;;;5068158;28;19940;-54
2022/02/18 07:12:10;;;;;;;;;;;19.70;48.90;;;;;;5063949;28;19912;-55
2022/02/18 07:14:36;;;;;;;;;;;19.70;48.80;;;;;;5068257;28;19981;-56
2022/02/18 07:17:02;;;;;;;;;;;19.70;48.80;;;;;;5080443;28;19913;-57
2022/02/18 07:19:27;;;;;;;;;;;19.70;48.70;;;;;;5065341;28;19912;-57
2022/02/18 07:21:53;;;;;;;;;;;19.70;48.60;;;;;;5078227;28;19913;-60
2022/02/18 07:24:18;;;;;;;;;;;19.70;48.80;;;;;;5073211;28;19935;-60
2022/02/18 07:26:44;;;;;;;;;;;19.70;49.20;;;;;;5068825;28;19966;-58
2022/02/18 07:29:09;;;;;;;;;;;19.70;49.40;;;;;;5073926;28;19912;-57
2022/02/18 07:31:36;;;;;;;;;;;19.70;49.50;;;;;;5075000;28;20297;-56
2022/02/18 07:34:01;;;;;;;;;;;19.70;49.30;;;;;;5076305;28;20300;-57
2022/02/18 07:36:27;;;;;;;;;;;19.70;49.30;;;;;;5074964;28;19916;-58
2022/02/18 07:38:52;;;;;;;;;;;19.70;49.30;;;;;;5069571;28;20285;-59
2022/02/18 07:41:18;;;;;;;;;;;19.70;49.30;;;;;;5079975;28;19912;-58
2022/02/18 07:43:43;;;;;;;;;;;19.60;49.30;;;;;;5069241;28;19912;-59
2022/02/18 07:46:09;;;;;;;;;;;19.70;49.30;;;;;;5077521;28;19917;-59
2022/02/18 07:48:34;;;;;;;;;;;19.70;49.40;;;;;;5062042;28;20037;-60
2022/02/18 07:51:00;;;;;;;;;;;19.60;49.50;;;;;;5076859;28;20396;-59
2022/02/18 07:53:25;;;;;;;;;;;19.70;49.70;;;;;;5073229;28;19963;-58
2022/02/18 07:55:50;;;;;;;;;;;19.70;49.90;;;;;;5055568;28;20343;-60
2022/02/18 07:58:16;;;;;;;;;;;19.70;49.90;;;;;;5063371;28;19913;-58
2022/02/18 08:00:41;;;;;;;;;;;19.70;50.00;;;;;;5053309;28;19912;-57
2022/02/18 08:03:07;;;;;;;;;;;19.70;50.20;;;;;;5066413;28;20206;-60
2022/02/18 08:05:33;;;;;;;;;;;19.70;50.30;;;;;;5054543;28;20396;-60
2022/02/18 08:08:00;;;;;;;;;;;19.70;50.50;;;;;;5076210;28;20324;-59
2022/02/18 08:10:26;;;;;;;;;;;19.70;50.60;;;;;;5074886;28;19919;-62
2022/02/18 08:12:52;;;;;;;;;;;19.70;50.70;;;;;;5069428;28;20320;-57
2022/02/18 08:15:18;;;;;;;;;;;19.70;50.70;;;;;;5069932;28;19921;-57
2022/02/18 08:17:43;;;;;;;;;;;19.70;50.90;;;;;;5063075;28;19916;-55
2022/02/18 08:20:09;;;;;;;;;;;19.70;51.00;;;;;;5074392;28;20550;-59
2022/02/18 08:22:34;;;;;;;;;;;19.70;51.60;;;;;;5062230;28;19917;-58
2022/02/18 08:25:00;;;;;;;;;;;19.70;51.10;;;;;;5068632;28;19912;-59
2022/02/18 08:27:26;;;;;;;;;;;19.70;51.10;;;;;;5072965;28;20636;-59
2022/02/18 08:29:51;;;;;;;;;;;19.70;51.10;;;;;;5071710;28;19931;-60
2022/02/18 08:32:17;;;;;;;;;;;19.70;51.20;;;;;;5077766;28;20358;-59
2022/02/18 08:34:42;;;;;;;;;;;19.70;51.20;;;;;;5075976;28;19969;-59
2022/02/18 08:37:08;;;;;;;;;;;19.60;51.20;;;;;;5073526;28;19916;-58
2022/02/18 08:39:33;;;;;;;;;;;19.70;51.20;;;;;;5063710;28;20393;-58
2022/02/18 08:41:59;;;;;;;;;;;19.70;51.20;;;;;;5064679;28;19912;-57
2022/02/18 08:44:24;;;;;;;;;;;19.70;51.10;;;;;;5075432;28;19912;-59
2022/02/18 08:46:50;;;;;;;;;;;19.70;51.00;;;;;;5067641;28;19912;-56
2022/02/18 08:49:15;;;;;;;;;;;19.70;51.00;;;;;;5076145;28;19912;-59
2022/02/18 08:51:40;;;;;;;;;;;19.70;51.00;;;;;;5059558;28;19912;-57
2022/02/18 08:54:06;;;;;;;;;;;19.70;50.90;;;;;;5078838;28;19965;-61
2022/02/18 08:56:31;;;;;;;;;;;19.70;50.90;;;;;;5078124;28;21205;-59
2022/02/18 08:58:57;;;;;;;;;;;19.70;50.90;;;;;;5068797;28;19961;-57
2022/02/18 09:01:24;;;;;;;;;;;19.70;50.90;;;;;;5075257;28;19913;-61
2022/02/18 09:03:50;;;;;;;;;;;19.70;50.80;;;;;;5067327;28;20532;-56
2022/02/18 09:06:15;;;;;;;;;;;19.70;50.80;;;;;;5081909;28;19973;-59
2022/02/18 09:08:41;;;;;;;;;;;19.70;50.80;;;;;;5061517;28;19977;-59
2022/02/18 09:11:06;;;;;;;;;;;19.70;50.80;;;;;;5068001;28;19923;-60
2022/02/18 09:13:31;;;;;;;;;;;19.70;50.80;;;;;;5054663;28;19951;-56
2022/02/18 09:15:57;;;;;;;;;;;19.70;50.70;;;;;;5066488;28;19921;-57
2022/02/18 09:18:22;;;;;;;;;;;19.70;50.70;;;;;;5055109;28;19947;-59
2022/02/18 09:20:48;;;;;;;;;;;19.70;50.70;;;;;;5069346;28;20417;-57
2022/02/18 09:23:14;;;;;;;;;;;19.70;50.70;;;;;;5074915;28;19940;-57
2022/02/18 09:25:40;;;;;;;;;;;19.70;50.70;;;;;;5070285;28;19920;-57
2022/02/18 09:28:05;;;;;;;;;;;19.70;50.70;;;;;;5081996;28;19923;-61
2022/02/18 09:30:31;;;;;;;;;;;19.60;50.60;;;;;;5078847;28;19919;-57
2022/02/18 09:32:57;;;;;;;;;;;19.70;50.70;;;;;;5052720;28;19966;-61
2022/02/18 09:35:24;;;;;;;;;;;19.70;50.70;;;;;;5032247;28;20011;-56
2022/02/18 09:37:49;;;;;;;;;;;19.60;50.60;;;;;;5054396;28;19912;-59
2022/02/18 09:40:16;;;;;;;;;;;19.70;50.80;;;;;;5082278;28;19961;-58
2022/02/18 09:42:41;;;;;;;;;;;19.70;50.80;;;;;;5079026;28;19913;-58
2022/02/18 09:45:07;;;;;;;;;;;19.70;50.90;;;;;;5072605;28;20076;-59
2022/02/18 09:47:33;;;;;;;;;;;19.70;50.90;;;;;;5081991;28;19919;-58
2022/02/18 09:49:58;;;;;;;;;;;19.70;51.00;;;;;;5073673;28;19912;-58
2022/02/18 09:52:23;;;;;;;;;;;19.70;51.10;;;;;;5066070;28;19920;-59
2022/02/18 09:54:49;;;;;;;;;;;19.70;51.20;;;;;;5060854;28;19935;-58
2022/02/18 09:57:14;;;;;;;;;;;19.70;51.10;;;;;;5065519;28;19916;-60
2022/02/18 09:59:40;;;;;;;;;;;19.80;51.30;;;;;;5063102;28;19912;-58
2022/02/18 10:02:05;;;;;;;;;;;19.80;51.30;;;;;;5074264;28;19919;-59
2022/02/18 10:04:31;;;;;;;;;;;19.80;51.30;;;;;;5054649;28;20255;-64
2022/02/18 10:06:56;;;;;;;;;;;19.80;51.30;;;;;;5083300;28;19923;-59
2022/02/18 10:09:41;;;;;;;;;;;19.80;51.40;;;;;;5071879;28;19916;-56
2022/02/18 10:12:08;;;;;;;;;;;19.80;51.30;;;;;;5062288;28;19947;-60
2022/02/18 10:14:53;;;;;;;;;;;19.80;51.20;;;;;;5070818;28;20340;-57
2022/02/18 10:17:19;;;;;;;;;;;19.80;51.10;;;;;;5077156;28;19920;-58
2022/02/18 10:19:51;;;;;;;;;;;19.90;51.10;;;;;;5079999;28;20358;-58
2022/02/18 10:22:23;;;;;;;;;;;19.80;51.10;;;;;;5080398;28;19912;-57
2022/02/18 10:24:52;;;;;;;;;;;19.80;51.10;;;;;;5072226;28;20400;-61
2022/02/18 10:27:21;;;;;;;;;;;19.90;51.20;;;;;;5055256;28;19912;-59
2022/02/18 10:29:56;;;;;;;;;;;19.80;51.10;;;;;;5078935;28;19920;-57
2022/02/18 10:32:22;;;;;;;;;;;19.90;51.10;;;;;;5068863;28;19920;-60
2022/02/18 10:34:55;;;;;;;;;;;19.80;51.00;;;;;;5066371;28;19912;-59
2022/02/18 10:37:20;;;;;;;;;;;19.90;51.10;;;;;;5080432;28;19917;-59
2022/02/18 10:39:46;;;;;;;;;;;19.80;50.90;;;;;;5076921;28;19913;-60
2022/02/18 10:42:11;;;;;;;;;;;19.80;51.00;;;;;;5064418;28;19924;-60
2022/02/18 10:44:38;;;;;;;;;;;19.80;51.00;;;;;;5054848;28;19924;-59
2022/02/18 10:47:07;;;;;;;;;;;19.80;51.00;;;;;;5081329;28;19912;-60
2022/02/18 10:49:33;;;;;;;;;;;19.80;51.00;;;;;;5077881;28;19913;-58
2022/02/18 10:52:03;;;;;;;;;;;19.80;50.90;;;;;;5051101;28;20534;-60
2022/02/18 10:54:30;;;;;;;;;;;19.80;50.90;;;;;;5058414;28;20090;-58
2022/02/18 10:57:14;;;;;;;;;;;19.80;50.90;;;;;;5067450;28;19921;-56
2022/02/18 10:59:40;;;;;;;;;;;19.80;50.90;;;;;;5076825;28;19912;-58
2022/02/18 11:02:05;;;;;;;;;;;19.80;50.90;;;;;;5076471;28;20530;-58
2022/02/18 11:04:31;;;;;;;;;;;19.80;50.90;;;;;;5071354;28;19913;-59
2022/02/18 11:07:26;;;;;;;;;;;19.80;50.90;;;;;;5074488;28;21750;-60
2022/02/18 11:09:51;;;;;;;;;;;19.80;50.90;;;;;;5049959;28;21290;-55
2022/02/18 11:12:18;;;;;;;;;;;19.80;50.90;;;;;;5042997;28;20259;-57
2022/02/18 11:14:48;;;;;;;;;;;19.80;50.90;;;;;;5067613;28;19964;-58
2022/02/18 11:17:14;;;;;;;;;;;19.80;50.90;;;;;;5069721;28;19995;-58
2022/02/18 11:19:43;;;;;;;;;;;19.80;50.80;;;;;;5045802;28;20625;-58
2022/02/18 11:22:09;;;;;;;;;;;19.80;50.80;;;;;;5063132;28;20381;-60
2022/02/18 11:24:34;;;;;;;;;;;19.80;50.70;;;;;;5074677;28;19912;-59
2022/02/18 11:27:02;;;;;;;;;;;19.80;50.90;;;;;;5055713;28;19923;-58
2022/02/18 11:29:28;;;;;;;;;;;19.80;50.90;;;;;;5071356;28;19947;-58
2022/02/18 11:31:56;;;;;;;;;;;19.80;50.80;;;;;;5056434;28;20380;-58
2022/02/18 11:34:31;;;;;;;;;;;19.80;50.80;;;;;;5044971;28;19917;-60
2022/02/18 11:37:14;;;;;;;;;;;19.80;50.80;;;;;;5042621;28;19917;-59
2022/02/18 11:39:40;;;;;;;;;;;19.80;50.90;;;;;;5043426;28;19916;-59
2022/02/18 11:42:09;;;;;;;;;;;19.90;50.90;;;;;;5062478;28;19912;-57
2022/02/18 11:44:34;;;;;;;;;;;19.90;51.00;;;;;;5057843;28;19941;-58
2022/02/18 11:47:20;;;;;;;;;;;19.90;51.00;;;;;;5067891;28;19912;-59
2022/02/18 11:49:46;;;;;;;;;;;19.90;51.00;;;;;;5065756;28;20373;-60
2022/02/18 11:52:12;;;;;;;;;;;19.90;51.10;;;;;;5057605;28;19926;-59
2022/02/18 11:54:38;;;;;;;;;;;19.90;51.10;;;;;;5074783;28;19916;-59
2022/02/18 11:57:13;;;;;;;;;;;19.80;51.00;;;;;;5070749;28;19916;-58
2022/02/18 11:59:57;;;;;;;;;;;19.80;51.10;;;;;;5083180;28;19912;-58
2022/02/18 12:02:42;;;;;;;;;;;19.90;51.20;;;;;;5073353;28;20401;-58
2022/02/18 12:05:13;;;;;;;;;;;19.90;51.20;;;;;;5063152;28;20011;-57
2022/02/18 12:07:40;;;;;;;;;;;19.80;51.10;;;;;;5053221;28;19916;-57
2022/02/18 12:10:09;;;;;;;;;;;19.80;51.10;;;;;;5058387;28;20011;-57
2022/02/18 12:12:38;;;;;;;;;;;19.80;51.10;;;;;;5066485;28;19912;-61
2022/02/18 12:15:14;;;;;;;;;;;19.80;51.10;;;;;;5053598;28;19917;-58
2022/02/18 12:17:41;;;;;;;;;;;19.80;51.10;;;;;;5077983;28;19913;-58
2022/02/18 12:20:11;;;;;;;;;;;19.80;51.20;;;;;;5065447;28;20333;-58
2022/02/18 12:22:37;;;;;;;;;;;19.80;51.20;;;;;;5070651;28;19947;-57
2022/02/18 12:25:05;;;;;;;;;;;19.80;51.30;;;;;;5082188;28;20322;-61
2022/02/18 12:27:33;;;;;;;;;;;19.80;51.30;;;;;;5067934;28;19912;-60
2022/02/18 12:30:03;;;;;;;;;;;19.80;51.30;;;;;;5054290;28;19916;-59
2022/02/18 12:32:28;;;;;;;;;;;19.80;51.20;;;;;;5069898;28;19913;-59
2022/02/18 12:35:01;;;;;;;;;;;19.80;51.30;;;;;;5073798;28;19919;-58
2022/02/18 12:37:26;;;;;;;;;;;19.80;51.40;;;;;;5077197;28;19920;-57
2022/02/18 12:39:55;;;;;;;;;;;19.80;51.40;;;;;;5046149;28;19925;-58
2022/02/18 12:42:25;;;;;;;;;;;19.80;51.40;;;;;;5055657;28;20553;-59
2022/02/18 12:45:01;;;;;;;;;;;19.80;51.50;;;;;;5046110;28;19916;-60
2022/02/18 12:47:28;;;;;;;;;;;19.80;51.40;;;;;;5041056;28;19916;-58
2022/02/18 12:49:54;;;;;;;;;;;19.80;51.50;;;;;;5073906;28;19955;-56
2022/02/18 12:52:20;;;;;;;;;;;19.80;51.50;;;;;;5064854;28;19917;-59
2022/02/18 12:54:49;;;;;;;;;;;19.80;51.50;;;;;;5078683;28;19923;-57
2022/02/18 12:57:15;;;;;;;;;;;19.80;51.50;;;;;;5069351;28;20382;-59
2022/02/18 12:59:41;;;;;;;;;;;19.80;51.50;;;;;;5065678;28;19920;-60
2022/02/18 13:02:06;;;;;;;;;;;19.80;51.50;;;;;;5078611;28;19935;-59
2022/02/18 13:04:32;;;;;;;;;;;19.80;51.60;;;;;;5083364;28;20294;-59
2022/02/18 13:06:57;;;;;;;;;;;19.80;52.20;;;;;;5075076;28;19917;-58
2022/02/18 13:09:26;;;;;;;;;;;19.80;51.60;;;;;;5065893;28;19927;-59
2022/02/18 13:11:51;;;;;;;;;;;19.80;51.70;;;;;;5074628;28;20032;-59
2022/02/18 13:14:17;;;;;;;;;;;19.80;51.70;;;;;;5062730;28;20365;-61
2022/02/18 13:16:47;;;;;;;;;;;19.80;51.70;;;;;;5077894;28;19923;-58
2022/02/18 13:19:13;;;;;;;;;;;19.80;51.60;;;;;;5075245;28;19913;-59
2022/02/18 13:21:39;;;;;;;;;;;19.80;51.70;;;;;;5074911;28;19918;-57
2022/02/18 13:24:04;;;;;;;;;;;19.80;51.80;;;;;;5075578;28;19919;-59
2022/02/18 13:26:30;;;;;;;;;;;19.80;51.80;;;;;;5075124;28;19920;-58
2022/02/18 13:28:58;;;;;;;;;;;19.80;51.70;;;;;;5073604;28;20807;-56
2022/02/18 13:31:24;;;;;;;;;;;19.80;51.80;;;;;;5070166;28;19927;-60
2022/02/18 13:33:51;;;;;;;;;;;19.80;51.80;;;;;;5068733;28;20344;-58
2022/02/18 13:36:17;;;;;;;;;;;19.80;51.80;;;;;;5075141;28;20372;-62
2022/02/18 13:38:47;;;;;;;;;;;19.80;51.80;;;;;;5082488;28;20369;-56
2022/02/18 13:41:15;;;;;;;;;;;19.80;51.80;;;;;;5057390;28;19912;-60
2022/02/18 13:43:44;;;;;;;;;;;19.80;51.80;;;;;;5076329;28;20262;-60
2022/02/18 13:46:10;;;;;;;;;;;19.80;51.80;;;;;;5068359;28;19916;-58
2022/02/18 13:48:36;;;;;;;;;;;19.80;51.90;;;;;;5079697;28;20390;-57
2022/02/18 13:51:02;;;;;;;;;;;19.80;51.90;;;;;;5053109;28;19941;-60
2022/02/18 13:53:28;;;;;;;;;;;19.80;51.90;;;;;;5047342;28;19962;-59
2022/02/18 13:55:55;;;;;;;;;;;19.80;51.90;;;;;;5071921;28;25225;-59
2022/02/18 13:58:22;;;;;;;;;;;19.80;51.90;;;;;;5080426;28;19916;-56
2022/02/18 14:00:47;;;;;;;;;;;19.80;52.00;;;;;;5076995;28;19920;-58
2022/02/18 14:03:15;;;;;;;;;;;19.80;51.90;;;;;;5068167;28;19913;-56
2022/02/18 14:05:40;;;;;;;;;;;19.80;52.00;;;;;;5078304;28;19962;-60
2022/02/18 14:08:10;;;;;;;;;;;19.90;52.00;;;;;;5065279;28;20354;-60
2022/02/18 14:10:47;;;;;;;;;;;19.80;51.90;;;;;;5077822;28;19920;-57
2022/02/18 14:13:27;;;;;;;;;;;19.80;52.00;;;;;;5074881;28;19920;-59